Time;durP1;ratioP1;P1;durP2;ratioP2;P2;SDS_P1;SDS_P2;PMS_P1;PMS_P2;Temp;Humidity;BMP_temperature;BMP_pressure;BME280_temperature;BME280_humidity;BME280_pressure;Samples;Min_cycle;Max_cycle;Signal;HPM_P1;HPM_P2
2023/10/03 00:00:31;;;;;;;41.13;14.15;;;;;;;-146.27;73.99;80891.94;5022575;28;20128;-71
2023/10/03 00:02:57;;;;;;;41.13;12.75;;;;;;;-146.27;73.74;80845.75;5012577;28;20501;-71
2023/10/03 00:05:33;;;;;;;37.63;13.35;;;;;;;-146.27;73.69;80857.78;5028951;28;20482;-71
2023/10/03 00:08:00;;;;;;;33.42;13.50;;;;;;;-146.27;73.62;80934.09;5024456;28;20037;-71
2023/10/03 00:10:28;;;;;;;30.75;12.63;;;;;;;-146.27;73.07;80914.00;5021086;28;20041;-71
2023/10/03 00:12:54;;;;;;;45.28;12.75;;;;;;;-146.27;72.94;80930.06;5027654;28;20078;-71
2023/10/03 00:15:23;;;;;;;33.60;13.32;;;;;;;-146.27;72.49;80877.88;5024994;28;20106;-72
2023/10/03 00:17:49;;;;;;;36.97;13.73;;;;;;;-146.27;72.14;80847.75;5025034;28;20492;-71
2023/10/03 00:20:16;;;;;;;33.45;13.50;;;;;;;-146.27;71.96;80829.69;5020570;28;20081;-71
2023/10/03 00:22:42;;;;;;;34.50;13.05;;;;;;;-146.27;71.81;80837.72;5017480;28;20072;-71
2023/10/03 00:25:11;;;;;;;39.13;14.02;;;;;;;-146.27;71.44;80817.63;5022708;28;20113;-71
2023/10/03 00:27:37;;;;;;;31.40;12.75;;;;;;;-146.27;71.24;80829.69;5026320;28;20025;-71
2023/10/03 00:30:05;;;;;;;28.10;11.88;;;;;;;-146.27;71.20;80777.47;5027758;28;20398;-72
2023/10/03 00:32:31;;;;;;;30.77;12.55;;;;;;;-146.27;71.21;80745.34;5031668;28;20091;-71
2023/10/03 00:34:56;;;;;;;33.30;13.27;;;;;;;-146.27;71.10;80793.53;5028064;28;20033;-71
2023/10/03 00:37:23;;;;;;;35.05;13.68;;;;;;;-146.27;70.98;80829.69;5028714;28;20128;-71
2023/10/03 00:39:49;;;;;;;36.20;13.68;;;;;;;-146.27;70.91;80787.50;5024806;28;20040;-71
2023/10/03 00:42:15;;;;;;;42.85;14.80;;;;;;;-146.27;70.88;80789.50;5024834;28;20037;-70
2023/10/03 00:44:41;;;;;;;32.50;12.75;;;;;;;-146.27;70.84;80805.56;5029317;28;20075;-69
2023/10/03 00:47:07;;;;;;;34.85;13.15;;;;;;;-146.27;70.98;80789.50;5026557;28;20034;-69
2023/10/03 00:49:35;;;;;;;33.28;12.50;;;;;;;-146.27;70.81;80773.44;5019255;28;20030;-69
2023/10/03 00:52:01;;;;;;;31.00;12.68;;;;;;;-146.27;71.05;80885.91;5026298;28;20265;-69
2023/10/03 00:54:27;;;;;;;33.22;13.73;;;;;;;-146.27;70.56;80789.50;5019339;28;20025;-68
2023/10/03 00:56:54;;;;;;;33.63;12.63;;;;;;;-146.27;70.26;80825.66;5027828;28;20045;-69
2023/10/03 00:59:20;;;;;;;30.73;12.35;;;;;;;-146.27;70.17;80749.34;5019331;28;20398;-69
2023/10/03 01:01:46;;;;;;;36.95;12.30;;;;;;;-146.27;69.82;80717.22;5018488;28;20037;-70
2023/10/03 01:04:19;;;;;;;34.17;12.35;;;;;;;-146.27;69.44;80685.09;5023189;28;20030;-68
2023/10/03 01:06:48;;;;;;;30.08;12.23;;;;;;;-146.27;69.27;80723.25;5040682;28;20021;-68
2023/10/03 01:09:24;;;;;;;33.17;12.40;;;;;;;-146.27;68.86;80701.16;5033393;28;20032;-68
2023/10/03 01:11:52;;;;;;;34.13;12.82;;;;;;;-146.27;68.67;80642.94;5025255;28;20059;-69
2023/10/03 01:14:18;;;;;;;32.53;11.23;;;;;;;-146.27;68.41;80703.16;5031119;28;20125;-68
2023/10/03 01:16:44;;;;;;;27.58;10.90;;;;;;;-146.27;69.27;80809.59;5029175;28;20103;-69
2023/10/03 01:19:25;;;;;;;32.55;12.15;;;;;;;-146.27;68.88;80657.00;5023600;28;20029;-68
2023/10/03 01:21:51;;;;;;;28.92;11.77;;;;;;;-146.27;68.74;80669.03;5027733;28;20052;-68
2023/10/03 01:24:20;;;;;;;34.35;12.80;;;;;;;-146.27;68.96;80769.44;5029791;28;20022;-69
2023/10/03 01:26:52;;;;;;;30.90;12.52;;;;;;;-146.27;68.33;80650.97;5019970;28;20415;-69
2023/10/03 01:29:17;;;;;;;34.38;13.20;;;;;;;-146.27;68.30;80630.88;5021487;28;20026;-68
2023/10/03 01:31:43;;;;;;;29.98;11.98;;;;;;;-146.27;68.48;80626.88;5024133;28;20035;-68
2023/10/03 01:34:09;;;;;;;27.75;12.65;;;;;;;-146.27;68.85;80687.09;5030321;28;20067;-68
2023/10/03 01:36:40;;;;;;;34.10;12.75;;;;;;;-146.27;68.83;80691.13;5020620;28;20144;-68
2023/10/03 01:39:06;;;;;;;32.08;12.63;;;;;;;-146.27;68.34;80604.78;5013916;28;20110;-68
2023/10/03 01:41:32;;;;;;;28.05;10.90;;;;;;;-146.27;68.71;80689.13;5028845;28;20405;-69
2023/10/03 01:43:57;;;;;;;31.73;12.25;;;;;;;-146.27;68.58;80644.94;5021046;28;20029;-68
2023/10/03 01:46:26;;;;;;;31.13;11.55;;;;;;;-146.27;68.60;80638.91;5017819;28;20026;-68
2023/10/03 01:48:52;;;;;;;48.95;12.75;;;;;;;-146.27;69.57;80731.28;5029044;28;20064;-67
2023/10/03 01:51:18;;;;;;;29.80;12.25;;;;;;;-146.27;69.20;80689.13;5025606;28;20061;-67
2023/10/03 01:53:45;;;;;;;30.02;11.70;;;;;;;-146.27;68.95;80659.00;5017615;28;20033;-69
2023/10/03 01:56:10;;;;;;;24.38;9.93;;;;;;;-146.27;69.57;80693.13;5028936;28;20045;-70
2023/10/03 01:58:36;;;;;;;28.05;11.90;;;;;;;-146.27;68.91;80596.75;5024253;28;20037;-67
2023/10/03 02:01:01;;;;;;;27.15;10.38;;;;;;;-146.27;68.66;80628.88;5028674;28;20120;-67
2023/10/03 02:03:29;;;;;;;33.30;11.55;;;;;;;-146.27;68.96;80600.75;5029795;28;20067;-68
2023/10/03 02:05:55;;;;;;;31.02;11.45;;;;;;;-146.27;69.05;80600.75;5022452;28;20439;-70
2023/10/03 02:08:21;;;;;;;30.95;11.20;;;;;;;-146.27;69.19;80632.91;5022649;28;20037;-66
2023/10/03 02:10:49;;;;;;;30.60;10.80;;;;;;;-146.27;69.32;80576.66;5014472;28;20049;-68
2023/10/03 02:13:17;;;;;;;31.95;10.32;;;;;;;-146.27;69.19;80472.25;5026197;28;20545;-68
2023/10/03 02:15:46;;;;;;;24.77;10.13;;;;;;;-146.27;69.49;80566.63;5015574;28;20045;-69
2023/10/03 02:18:13;;;;;;;27.63;10.73;;;;;;;-146.27;70.11;80642.94;5025632;28;20029;-69
2023/10/03 02:20:51;;;;;;;27.05;10.50;;;;;;;-146.27;69.97;80544.53;5026424;28;20031;-68
2023/10/03 02:23:26;;;;;;;32.33;11.13;;;;;;;-146.27;69.61;80512.41;5028972;28;20037;-69
2023/10/03 02:25:57;;;;;;;25.05;10.90;;;;;;;-146.27;69.35;80476.28;5027050;28;20025;-69
2023/10/03 02:28:26;;;;;;;24.33;9.60;;;;;;;-146.27;70.53;80592.72;5026733;28;20041;-68
2023/10/03 02:30:52;;;;;;;26.63;10.23;;;;;;;-146.27;70.97;80624.88;5023078;28;20135;-69
2023/10/03 02:33:18;;;;;;;25.15;10.15;;;;;;;-146.27;70.29;80496.34;5020298;28;20081;-69
2023/10/03 02:35:47;;;;;;;26.45;10.55;;;;;;;-146.27;70.67;80560.59;5029285;28;20029;-67
2023/10/03 02:38:49;;;;;;;24.73;9.73;;;;;;;-146.27;71.32;80572.66;5015873;28;20026;-70
2023/10/03 02:41:07;;;;;;;24.48;9.20;;;;;;;-146.27;71.77;80644.94;5028169;28;20033;-69
2023/10/03 02:43:34;;;;;;;28.30;9.82;;;;;;;-146.27;72.49;80669.03;5017542;28;20500;-69
2023/10/03 02:46:00;;;;;;;24.27;8.65;;;;;;;-146.27;71.80;80709.19;5019409;28;20718;-68
2023/10/03 02:48:26;;;;;;;22.67;8.23;;;;;;;-146.27;71.46;80616.84;5027985;28;20068;-69
2023/10/03 02:50:52;;;;;;;25.17;8.77;;;;;;;-146.27;71.02;80636.91;5025955;28;20022;-70
2023/10/03 02:53:20;;;;;;;18.75;6.80;;;;;;;-146.27;71.49;80685.09;5029731;28;20388;-67
2023/10/03 02:55:52;;;;;;;15.45;5.82;;;;;;;-146.27;71.47;80669.03;5028005;28;20112;-68
2023/10/03 02:58:22;;;;;;;15.20;5.40;;;;;;;-146.27;71.58;80701.16;5025089;28;20033;-69
2023/10/03 03:00:55;;;;;;;16.50;6.60;;;;;;;-146.27;72.93;80797.53;5025458;28;20030;-67
2023/10/03 03:03:22;;;;;;;;;;;;;;;-146.27;72.72;80749.34;5025984;28;20040;-70
2023/10/03 03:05:49;;;;;;;18.20;5.93;;;;;;;-146.27;73.31;80753.38;5015783;28;19913;-70
2023/10/03 03:10:41;;;;;;;14.85;4.85;;;;;;;-146.27;75.10;80865.81;5021914;28;20044;-70
2023/10/03 03:13:08;;;;;;;22.52;5.93;;;;;;;-146.27;75.94;80897.94;5025410;28;20021;-70
2023/10/03 03:15:36;;;;;;;21.90;5.88;;;;;;;-146.27;76.60;80885.91;5019204;28;20111;-71
2023/10/03 03:18:03;;;;;;;20.88;5.68;;;;;;;-146.27;76.69;80871.84;5030295;28;20037;-72
2023/10/03 03:20:36;;;;;;;17.60;5.40;;;;;;;-146.27;77.13;80899.97;5025146;28;20036;-70
2023/10/03 03:23:02;;;;;;;22.80;6.50;;;;;;;-146.27;79.15;81018.44;5028507;28;20543;-71
2023/10/03 03:25:37;;;;;;;21.27;7.22;;;;;;;-146.27;79.35;81030.47;5030714;28;20033;-69
2023/10/03 03:28:13;;;;;;;22.30;5.90;;;;;;;-146.27;80.12;81050.56;5019038;28;20025;-69
2023/10/03 03:30:46;;;;;;;23.50;6.03;;;;;;;-146.27;80.54;81159.00;5026720;28;20430;-69
2023/10/03 03:33:19;;;;;;;32.58;6.40;;;;;;;-146.27;80.86;81136.91;5030953;28;20028;-71
2023/10/03 03:35:48;;;;;;;26.58;5.90;;;;;;;-146.27;80.36;81114.81;5028419;28;20044;-70
2023/10/03 03:38:15;;;;;;;26.73;5.97;;;;;;;-146.27;80.07;81102.78;5022963;28;20039;-71
2023/10/03 03:40:45;;;;;;;17.65;5.55;;;;;;;-146.27;80.24;81140.94;5019112;28;20029;-71
2023/10/03 03:43:13;;;;;;;22.58;5.57;;;;;;;-146.27;81.89;81295.56;5024236;28;20033;-71
2023/10/03 03:45:39;;;;;;;30.80;6.20;;;;;;;-146.27;81.74;81207.19;5019582;28;20379;-71
2023/10/03 03:48:06;;;;;;;25.45;6.00;;;;;;;-146.27;80.38;81116.84;5030003;28;20036;-70
2023/10/03 03:50:31;;;;;;;32.95;6.10;;;;;;;-146.27;80.60;81078.69;5021710;28;20522;-71
2023/10/03 03:52:58;;;;;;;26.02;6.15;;;;;;;-146.27;80.19;81086.72;5029033;28;20104;-70
2023/10/03 03:55:29;;;;;;;25.10;5.88;;;;;;;-146.27;80.88;81120.84;5020662;28;20033;-72
2023/10/03 03:57:56;;;;;;;28.30;6.20;;;;;;;-146.27;80.86;81124.88;5024186;28;20472;-72
2023/10/03 04:00:28;;;;;;;27.30;6.88;;;;;;;-146.27;80.98;81179.09;5030133;28;20367;-72
2023/10/03 04:02:57;;;;;;;31.55;6.75;;;;;;;-146.27;81.34;81175.06;5025064;28;20037;-72
2023/10/03 04:05:22;;;;;;;27.08;6.22;;;;;;;-146.27;80.88;81169.03;5016515;28;20026;-72
2023/10/03 04:07:48;;;;;;;20.38;4.78;;;;;;;-146.27;79.83;81126.88;5028661;28;20048;-72
2023/10/03 04:10:13;;;;;;;25.50;5.05;;;;;;;-146.27;79.87;81122.84;5022118;28;20911;-72
2023/10/03 04:12:42;;;;;;;19.40;5.03;;;;;;;-146.27;80.36;81183.09;5028790;28;20104;-72
2023/10/03 04:15:12;;;;;;;18.15;5.15;;;;;;;-146.27;80.45;81193.16;5033268;28;20045;-71
2023/10/03 04:17:40;;;;;;;21.27;5.75;;;;;;;-146.27;79.44;81157.00;5029210;28;20052;-71
2023/10/03 04:20:19;;;;;;;21.90;4.95;;;;;;;-146.27;79.81;81155.00;5023430;28;20055;-72
2023/10/03 04:22:46;;;;;;;20.45;5.07;;;;;;;-146.27;79.57;81203.19;5023906;28;20037;-70
2023/10/03 04:25:19;;;;;;;19.23;4.78;;;;;;;-146.27;79.31;81235.31;5049776;28;20536;-69
2023/10/03 04:27:47;;;;;;;17.63;4.53;;;;;;;-146.27;79.31;81245.34;5038758;28;20037;-71
2023/10/03 04:30:14;;;;;;;16.77;4.93;;;;;;;-146.27;78.30;81177.06;5027799;28;20043;-71
2023/10/03 04:32:43;;;;;;;15.15;4.90;;;;;;;-146.27;77.42;81084.69;5019472;28;20079;-70
2023/10/03 04:35:13;;;;;;;19.38;5.05;;;;;;;-146.27;77.44;81193.16;5021359;28;20112;-70
2023/10/03 04:37:41;;;;;;;13.00;4.95;;;;;;;-146.27;78.28;81207.19;5022864;28;20446;-71
2023/10/03 04:42:56;;;;;;;14.07;4.82;;;;;;;-146.27;76.96;81155.00;5021660;28;20052;-70
2023/10/03 04:45:22;;;;;;;16.67;6.03;;;;;;;-146.27;76.91;81108.81;5032442;28;20425;-70
2023/10/03 04:47:49;;;;;;;18.55;4.72;;;;;;;-146.27;76.38;81074.66;5031266;28;20047;-70
2023/10/03 04:50:18;;;;;;;15.15;3.90;;;;;;;-146.27;76.99;81134.91;5029475;28;20034;-71
2023/10/03 04:52:50;;;;;;;13.00;4.10;;;;;;;-146.27;76.50;81050.56;5029349;28;20025;-70
2023/10/03 04:55:22;;;;;;;23.60;4.78;;;;;;;-146.27;77.06;81155.00;5030916;28;20034;-69
2023/10/03 04:57:50;;;;;;;13.45;3.72;;;;;;;-146.27;77.48;81146.97;5029106;28;20033;-71
2023/10/03 05:00:18;;;;;;;11.82;3.60;;;;;;;-146.27;76.48;81070.66;5038374;28;20440;-70
2023/10/03 05:02:48;;;;;;;23.13;4.28;;;;;;;-146.27;77.12;81134.91;5022207;28;20117;-70
2023/10/03 05:05:18;;;;;;;12.23;3.38;;;;;;;-146.27;77.09;81130.88;5022762;28;20033;-71
2023/10/03 05:07:44;;;;;;;13.02;3.53;;;;;;;-146.27;77.21;81163.03;5031278;28;20037;-70
2023/10/03 05:10:10;;;;;;;14.25;4.35;;;;;;;-146.27;77.25;81201.19;5026490;28;20025;-70
2023/10/03 05:12:36;;;;;;;9.77;3.20;;;;;;;-146.27;77.34;81207.19;5022900;28;20037;-70
2023/10/03 05:15:02;;;;;;;9.95;3.22;;;;;;;-146.27;78.00;81285.53;5029954;28;20045;-69
2023/10/03 05:17:27;;;;;;;8.90;3.25;;;;;;;-146.27;78.13;81255.41;5031124;28;20021;-69
2023/10/03 05:19:58;;;;;;;9.75;3.47;;;;;;;-146.27;77.80;81179.09;5031564;28;20686;-69
2023/10/03 05:22:24;;;;;;;18.52;4.00;;;;;;;-146.27;78.21;81223.25;5019719;28;20038;-70
2023/10/03 05:24:49;;;;;;;11.75;3.30;;;;;;;-146.27;77.86;81205.19;5021080;28;20014;-70
2023/10/03 05:27:16;;;;;;;12.40;3.90;;;;;;;-146.27;77.73;81211.22;5031195;28;20104;-69
2023/10/03 05:29:43;;;;;;;11.65;3.33;;;;;;;-146.27;78.84;81313.63;5024586;28;20045;-69
2023/10/03 05:32:08;;;;;;;16.48;3.95;;;;;;;-146.27;79.37;81331.72;5013173;28;20029;-69
2023/10/03 05:34:34;;;;;;;15.23;3.38;;;;;;;-146.27;79.68;81287.53;5028897;28;20018;-71
2023/10/03 05:37:03;;;;;;;11.73;3.47;;;;;;;-146.27;80.49;81313.63;5014777;28;20030;-71
2023/10/03 05:39:30;;;;;;;9.63;3.05;;;;;;;-146.27;80.04;81331.72;5023248;28;20067;-68
2023/10/03 05:41:56;;;;;;;7.50;3.03;;;;;;;-146.27;79.96;81400.00;5025555;28;20030;-69
2023/10/03 05:44:23;;;;;;;11.32;2.80;;;;;;;-146.27;79.68;81432.13;5025359;28;20034;-69
2023/10/03 05:46:53;;;;;;;7.53;2.50;;;;;;;-146.27;79.31;81414.06;5023878;28;20021;-70
2023/10/03 05:49:19;;;;;;;15.98;2.80;;;;;;;-146.27;79.17;81353.81;5028117;28;20029;-70
2023/10/03 05:51:46;;;;;;;10.35;2.90;;;;;;;-146.27;79.31;81412.03;5014391;28;20087;-70
2023/10/03 05:54:12;;;;;;;9.05;2.38;;;;;;;-146.27;78.75;81385.94;5017891;28;20025;-71
2023/10/03 05:56:37;;;;;;;7.75;2.10;;;;;;;-146.27;77.54;81327.69;5011875;28;20083;-70
2023/10/03 05:59:02;;;;;;;5.03;1.85;;;;;;;-146.27;76.89;81379.91;5013493;28;20466;-69
2023/10/03 06:01:30;;;;;;;5.40;1.67;;;;;;;-146.27;76.74;81462.25;5031153;28;20037;-71
2023/10/03 06:03:56;;;;;;;10.43;2.58;;;;;;;-146.27;75.77;81315.66;5025978;28;20010;-70
2023/10/03 06:06:22;;;;;;;4.82;1.52;;;;;;;-146.27;75.63;81359.81;5025552;28;20028;-70
2023/10/03 06:08:49;;;;;;;7.10;1.48;;;;;;;-146.27;76.68;81460.25;5026674;28;20021;-70
2023/10/03 06:11:15;;;;;;;5.40;1.45;;;;;;;-146.27;76.05;81335.72;5012179;28;20498;-70
2023/10/03 06:13:44;;;;;;;5.50;1.60;;;;;;;-146.27;77.00;81359.81;5012653;28;20088;-70
2023/10/03 06:16:12;;;;;;;7.40;1.63;;;;;;;-146.27;78.13;81377.91;5026050;28;20034;-69
2023/10/03 06:18:40;;;;;;;9.00;1.80;;;;;;;-146.27;78.47;81402.00;5030592;28;20021;-69
2023/10/03 06:21:07;;;;;;;9.93;1.92;;;;;;;-146.27;79.39;81430.13;5029847;28;20461;-71
2023/10/03 06:23:34;;;;;;;13.43;3.50;;;;;;;-146.27;78.63;81319.66;5028904;28;20034;-69
2023/10/03 06:25:59;;;;;;;3.00;1.50;;;;;;;-146.27;79.78;81395.97;5031285;28;20104;-70
2023/10/03 06:28:25;;;;;;;7.00;1.95;;;;;;;-146.27;81.03;81476.31;5031256;28;20069;-70
2023/10/03 06:30:51;;;;;;;6.20;1.70;;;;;;;-146.27;81.87;81516.47;5031293;28;20033;-69
2023/10/03 06:33:16;;;;;;;11.75;2.47;;;;;;;-146.27;80.92;81434.13;5027577;28;20107;-69
2023/10/03 06:35:42;;;;;;;13.60;2.53;;;;;;;-146.27;81.35;81444.19;5027989;28;20061;-69
2023/10/03 06:38:07;;;;;;;10.60;2.05;;;;;;;-146.27;82.10;81506.44;5028639;28;20029;-69
2023/10/03 06:40:33;;;;;;;14.35;2.85;;;;;;;-146.27;82.00;81480.31;5029382;28;20044;-70
2023/10/03 06:42:58;;;;;;;9.82;3.05;;;;;;;-146.27;81.56;81391.97;5022669;28;20033;-69
2023/10/03 06:45:23;;;;;;;16.08;2.70;;;;;;;-146.27;81.69;81456.22;5027584;28;20033;-71
2023/10/03 06:47:49;;;;;;;10.82;1.98;;;;;;;-146.27;83.42;81564.69;5030181;28;20025;-70
2023/10/03 06:50:15;;;;;;;14.05;1.90;;;;;;;-146.27;83.06;81540.56;5030297;28;20489;-71
2023/10/03 06:52:40;;;;;;;9.57;1.77;;;;;;;-146.27;82.23;81472.28;5029648;28;20021;-70
2023/10/03 06:55:06;;;;;;;12.13;1.73;;;;;;;-146.27;83.44;81596.81;5025220;28;20031;-71
2023/10/03 06:57:36;;;;;;;11.07;1.90;;;;;;;-146.27;84.99;81677.16;5020767;28;20057;-71
2023/10/03 07:00:02;;;;;;;9.68;2.13;;;;;;;-146.27;86.32;81767.53;5024818;28;20022;-69
2023/10/03 07:02:28;;;;;;;8.63;2.22;;;;;;;-146.27;86.47;81721.34;5022541;28;20028;-71
2023/10/03 07:04:53;;;;;;;6.40;1.45;;;;;;;-146.27;86.05;81697.22;5030156;28;20096;-70
2023/10/03 07:07:18;;;;;;;6.32;1.27;;;;;;;-146.27;85.98;81679.16;5022173;28;20025;-71
2023/10/03 07:09:44;;;;;;;4.35;1.35;;;;;;;-146.27;87.14;81815.72;5024069;28;20045;-71
2023/10/03 07:12:10;;;;;;;6.45;1.45;;;;;;;-146.27;87.21;81841.84;5027308;28;20039;-70
2023/10/03 07:14:36;;;;;;;5.07;0.98;;;;;;;-146.27;87.82;81882.00;5014420;28;20431;-71
2023/10/03 07:17:03;;;;;;;5.78;1.10;;;;;;;-146.27;86.89;81823.78;5019391;28;20076;-70
2023/10/03 07:19:30;;;;;;;7.28;1.10;;;;;;;-146.27;86.64;81821.75;5020902;28;20091;-70
2023/10/03 07:21:56;;;;;;;6.90;1.10;;;;;;;-146.27;86.93;81861.94;5026243;28;20451;-70
2023/10/03 07:24:24;;;;;;;8.48;1.15;;;;;;;-146.27;86.36;81793.66;5028971;28;20026;-70
2023/10/03 07:26:49;;;;;;;8.45;1.35;;;;;;;-146.27;85.78;81783.59;5030738;28;20026;-71
2023/10/03 07:29:15;;;;;;;7.95;1.33;;;;;;;-146.27;85.52;81821.75;5030540;28;20022;-70
2023/10/03 07:31:41;;;;;;;7.93;1.42;;;;;;;-146.27;85.68;81817.75;5014325;28;20030;-69
2023/10/03 07:34:07;;;;;;;9.43;1.40;;;;;;;-146.27;85.22;81785.59;5011949;28;20014;-69
2023/10/03 07:36:33;;;;;;;12.93;1.77;;;;;;;-146.27;84.97;81781.59;5010660;28;20022;-69
2023/10/03 07:38:58;;;;;;;8.48;1.50;;;;;;;-146.27;84.41;81829.78;5009092;28;20379;-70
2023/10/03 07:41:24;;;;;;;12.55;1.50;;;;;;;-146.27;84.27;81869.97;5020500;28;20029;-69
2023/10/03 07:43:49;;;;;;;7.07;0.98;;;;;;;-146.27;83.33;81835.81;5029514;28;20147;-70
2023/10/03 07:46:22;;;;;;;6.28;1.05;;;;;;;-146.27;82.88;81777.56;5025414;28;20029;-70
2023/10/03 07:48:52;;;;;;;4.75;1.20;;;;;;;-146.27;81.66;81761.50;5027402;28;20088;-70
2023/10/03 07:51:19;;;;;;;5.95;1.20;;;;;;;-146.27;81.01;81725.34;5015489;28;20061;-70
2023/10/03 07:53:45;;;;;;;10.80;1.35;;;;;;;-146.27;80.40;81747.44;5016675;28;20026;-70
2023/10/03 07:56:25;;;;;;;10.63;1.13;;;;;;;-146.27;79.88;81697.22;5020591;28;20328;-68
2023/10/03 07:58:54;;;;;;;2.22;0.80;;;;;;;-146.27;80.95;81723.34;5015673;28;20036;-70
2023/10/03 08:01:24;;;;;;;2.53;0.88;;;;;;;-146.27;81.73;81803.69;5014319;28;20049;-69
2023/10/03 08:03:53;;;;;;;3.58;0.77;;;;;;;-146.27;82.22;81825.78;5027094;28;20052;-69
2023/10/03 08:06:22;;;;;;;3.72;0.68;;;;;;;-146.27;83.36;81936.25;5017488;28;20033;-69
2023/10/03 08:08:48;;;;;;;6.07;1.00;;;;;;;-146.27;84.51;82008.56;5013744;28;20555;-70
2023/10/03 08:11:15;;;;;;;6.97;0.80;;;;;;;-146.27;84.76;81974.41;5021474;28;20235;-68
2023/10/03 08:13:41;;;;;;;3.47;0.90;;;;;;;-146.27;84.96;81982.44;5033762;28;20032;-69
2023/10/03 08:16:06;;;;;;;4.10;0.50;;;;;;;-146.27;85.42;81986.47;5032965;28;20450;-70
2023/10/03 08:18:36;;;;;;;5.10;0.60;;;;;;;-146.27;85.91;82034.66;5026417;28;20031;-69
2023/10/03 08:21:04;;;;;;;4.28;0.47;;;;;;;-146.27;85.45;81942.28;5013617;28;20029;-68
2023/10/03 08:23:35;;;;;;;8.32;1.27;;;;;;;-146.27;85.52;82064.81;5014060;28;20079;-69
2023/10/03 08:26:01;;;;;;;4.20;0.80;;;;;;;-146.27;85.82;82084.88;5020064;28;20121;-69
2023/10/03 08:28:28;;;;;;;4.53;0.70;;;;;;;-146.27;85.73;82062.78;5031739;28;20036;-69
2023/10/03 08:30:55;;;;;;;6.10;0.88;;;;;;;-146.27;85.49;81986.47;5033678;28;20485;-69
2023/10/03 08:33:20;;;;;;;16.15;1.70;;;;;;;-146.27;85.50;81996.50;5033018;28;20080;-69
2023/10/03 08:35:46;;;;;;;11.68;1.27;;;;;;;-146.27;85.38;82010.56;5030992;28;20489;-69
2023/10/03 08:38:13;;;;;;;6.75;1.35;;;;;;;-146.27;85.65;82056.75;5032203;28;20048;-69
2023/10/03 08:40:45;;;;;;;8.82;1.23;;;;;;;-146.27;85.60;82012.56;5022696;28;20044;-70
2023/10/03 08:43:12;;;;;;;6.00;0.98;;;;;;;-146.27;84.92;81974.41;5032668;28;20485;-69
2023/10/03 08:45:40;;;;;;;5.70;1.23;;;;;;;-146.27;84.99;81998.50;5024927;28;20398;-68
2023/10/03 08:48:07;;;;;;;7.97;1.15;;;;;;;-146.27;85.49;82028.66;5018530;28;20112;-67
2023/10/03 08:50:46;;;;;;;10.25;1.50;;;;;;;-146.27;85.25;81982.44;5014848;28;20555;-69
2023/10/03 08:53:13;;;;;;;6.35;1.00;;;;;;;-146.27;85.29;81990.47;5015511;28;20044;-68
2023/10/03 08:55:40;;;;;;;10.13;2.03;;;;;;;-146.27;85.38;82046.72;5012136;28;20093;-71
2023/10/03 08:58:08;;;;;;;4.47;0.73;;;;;;;-146.27;85.53;82018.59;5012181;28;20065;-71
2023/10/03 09:00:40;;;;;;;5.65;1.02;;;;;;;-146.27;85.22;81966.38;5014144;28;20060;-71
2023/10/03 09:03:11;;;;;;;4.53;0.68;;;;;;;-146.27;84.69;82002.53;5029279;28;20033;-71
2023/10/03 09:05:41;;;;;;;7.30;1.13;;;;;;;-146.27;84.68;81958.34;5031675;28;20104;-71
2023/10/03 09:08:12;;;;;;;5.22;1.00;;;;;;;-146.27;84.54;81976.41;5031703;28;20036;-72
2023/10/03 09:10:51;;;;;;;5.20;0.85;;;;;;;-146.27;84.29;81986.47;5030665;28;20035;-71
2023/10/03 09:13:25;;;;;;;4.18;0.82;;;;;;;-146.27;83.97;82072.84;5029408;28;20060;-71
2023/10/03 09:15:59;;;;;;;6.13;0.75;;;;;;;-146.27;83.96;82046.72;5029980;28;20056;-71
2023/10/03 09:18:42;;;;;;;3.83;0.70;;;;;;;-146.27;84.31;82036.69;5031522;28;20056;-71
2023/10/03 09:21:15;;;;;;;4.03;0.87;;;;;;;-146.27;83.76;82020.59;5018737;28;20029;-71
2023/10/03 09:23:59;;;;;;;4.68;1.90;;;;;;;-146.27;84.22;82050.75;5030070;28;20293;-71
2023/10/03 09:26:27;;;;;;;3.08;0.70;;;;;;;-146.27;84.46;82036.69;5028378;28;20045;-71
2023/10/03 09:28:52;;;;;;;5.95;1.52;;;;;;;-146.27;84.01;82090.91;5011158;28;20100;-71
2023/10/03 09:31:22;;;;;;;4.95;0.80;;;;;;;-146.27;84.23;82068.81;5023273;28;20040;-71
2023/10/03 09:33:48;;;;;;;3.85;0.82;;;;;;;-146.27;84.59;82147.16;5011308;28;20018;-71
2023/10/03 09:36:13;;;;;;;5.32;0.88;;;;;;;-146.27;84.53;82119.03;5018618;28;20401;-71
2023/10/03 09:38:44;;;;;;;6.70;0.98;;;;;;;-146.27;84.43;82131.09;5017098;28;20629;-71
2023/10/03 09:41:23;;;;;;;9.27;1.00;;;;;;;-146.27;84.33;82106.97;5014921;28;20017;-71
2023/10/03 09:43:53;;;;;;;4.93;0.80;;;;;;;-146.27;84.67;82129.06;5030889;28;20030;-71
2023/10/03 09:46:38;;;;;;;6.78;0.80;;;;;;;-146.27;84.82;82123.06;5030922;28;20083;-72
2023/10/03 09:49:08;;;;;;;8.95;1.02;;;;;;;-146.27;85.37;82171.25;5030391;28;20037;-72
2023/10/03 09:51:45;;;;;;;5.90;0.85;;;;;;;-146.27;85.38;82211.44;5022752;28;20040;-71
2023/10/03 09:54:14;;;;;;;4.00;0.80;;;;;;;-146.27;85.62;82195.38;5011066;28;20046;-72
2023/10/03 09:56:44;;;;;;;5.22;0.75;;;;;;;-146.27;85.69;82183.31;5023390;28;20098;-72
2023/10/03 09:59:17;;;;;;;6.50;1.25;;;;;;;-146.27;85.67;82159.22;5030701;28;20375;-71
2023/10/03 10:01:43;;;;;;;;;;;;;;;-146.27;85.99;82147.16;5023694;28;20053;-71
2023/10/03 10:04:09;;;;;;;5.38;1.00;;;;;;;-146.27;86.33;82183.31;5023645;28;19994;-72
2023/10/03 10:06:47;;;;;;;7.88;1.65;;;;;;;-146.27;86.26;82173.28;5030583;28;20029;-72
2023/10/03 10:09:28;;;;;;;8.40;1.55;;;;;;;-146.27;86.18;82185.31;5030443;28;20044;-72
2023/10/03 10:12:12;;;;;;;9.38;1.85;;;;;;;-146.27;86.44;82131.09;5029243;28;20389;-71
2023/10/03 10:15:13;;;;;;;7.75;1.50;;;;;;;-146.27;86.63;82115.00;5028366;28;20033;-71
2023/10/03 10:17:54;;;;;;;7.10;1.40;;;;;;;-146.27;86.37;82066.81;5029024;28;20068;-76
2023/10/03 10:20:27;;;;;;;5.47;1.38;;;;;;;-146.27;86.37;82115.00;5029464;28;20100;-71
2023/10/03 10:23:04;;;;;;;9.82;1.45;;;;;;;-146.27;86.11;82062.78;5028669;28;20033;-71
2023/10/03 10:25:37;;;;;;;5.35;1.73;;;;;;;-146.27;86.02;82111.00;5030286;28;20496;-68
2023/10/03 10:28:05;;;;;;;6.70;1.83;;;;;;;-146.27;86.09;82117.03;5030183;28;20025;-72
2023/10/03 10:30:35;;;;;;;6.18;1.52;;;;;;;-146.27;86.02;82078.84;5029347;28;20570;-71
2023/10/03 10:33:16;;;;;;;13.60;2.28;;;;;;;-146.27;86.34;82117.03;5015116;28;20060;-71
2023/10/03 10:36:04;;;;;;;12.15;2.00;;;;;;;-146.27;86.21;82058.78;5025324;28;20428;-71
2023/10/03 10:38:32;;;;;;;11.43;2.00;;;;;;;-146.27;86.36;82179.28;5014689;28;20028;-71
2023/10/03 10:44:09;;;;;;;10.23;2.28;;;;;;;-146.27;85.98;82225.50;5012938;28;20041;-70
2023/10/03 10:46:42;;;;;;;8.32;1.98;;;;;;;-146.27;85.68;82263.66;5010172;28;20462;-71
2023/10/03 10:49:30;;;;;;;8.52;2.33;;;;;;;-146.27;86.17;82315.88;5010982;28;20030;-71
2023/10/03 10:51:57;;;;;;;15.77;2.15;;;;;;;-146.27;86.30;82376.16;5020944;28;20026;-71
2023/10/03 10:54:25;;;;;;;13.80;2.38;;;;;;;-146.27;86.65;82368.13;5029884;28;20060;-71
2023/10/03 10:57:02;;;;;;;15.80;2.47;;;;;;;-146.27;86.35;82344.00;5028458;28;20065;-71
2023/10/03 10:59:28;;;;;;;10.23;3.08;;;;;;;-146.27;86.80;82360.09;5015619;28;20040;-71
2023/10/03 11:01:54;;;;;;;10.30;2.40;;;;;;;-146.27;86.82;82390.22;5014407;28;20021;-71
2023/10/03 11:04:27;;;;;;;10.68;2.03;;;;;;;-146.27;87.06;82440.44;5021290;28;20041;-71
2023/10/03 11:06:52;;;;;;;8.45;2.25;;;;;;;-146.27;86.34;82412.31;5028440;28;20026;-71
2023/10/03 11:09:20;;;;;;;7.60;2.00;;;;;;;-146.27;86.46;82428.38;5029766;28;20017;-71
2023/10/03 11:11:46;;;;;;;9.90;2.05;;;;;;;-146.27;86.58;82370.13;5015766;28;20058;-71
2023/10/03 11:14:11;;;;;;;11.25;1.67;;;;;;;-146.27;87.35;82428.38;5008172;28;20410;-71
2023/10/03 11:16:37;;;;;;;14.00;2.35;;;;;;;-146.27;87.05;82370.13;5021534;28;20030;-71
2023/10/03 11:19:04;;;;;;;15.32;2.70;;;;;;;-146.27;86.98;82325.94;5012522;28;20053;-71
2023/10/03 11:21:30;;;;;;;7.82;1.98;;;;;;;-146.27;87.75;82346.03;5016152;28;20044;-70
2023/10/03 11:24:14;;;;;;;10.27;2.53;;;;;;;-146.27;87.72;82301.81;5030491;28;20501;-70
2023/10/03 11:26:51;;;;;;;14.93;3.20;;;;;;;-146.27;87.29;82297.81;5037178;28;20072;-70